Time,TemperatureF,DewpointF,PressureIn,WindDirection,WindDirectionDegrees,WindSpeedMPH,WindSpeedGustMPH,Humidity,HourlyPrecipIn,Conditions,Clouds,dailyrainin,SoftwareType,DateUTC
2013-04-07 00:02:00,39.0,34.6,29.83,ENE,70,1.0,3.0,84,0.00,,,0.00,WUHU216DAVISVP2,2013-04-07 05:02:00,
2013-04-07 00:07:00,38.7,34.3,29.83,NE,42,0.0,4.0,84,0.00,,,0.00,WUHU216DAVISVP2,2013-04-07 05:07:00,
2013-04-07 00:12:00,38.4,34.3,29.83,NNE,25,0.0,4.0,85,0.00,,,0.00,WUHU216DAVISVP2,2013-04-07 05:12:00,
2013-04-07 00:17:00,38.2,34.1,29.83,NNE,33,1.0,4.0,85,0.00,,,0.00,WUHU216DAVISVP2,2013-04-07 05:17:00,
2013-04-07 00:22:00,37.9,33.8,29.83,NNW,347,1.0,4.0,85,0.00,,,0.00,WUHU216DAVISVP2,2013-04-07 05:22:00,
2013-04-07 00:27:00,37.7,33.6,29.83,North,358,2.0,4.0,85,0.00,,,0.00,WUHU216DAVISVP2,2013-04-07 05:27:00,
2013-04-07 00:32:00,37.5,33.4,29.83,NNW,330,2.0,4.0,85,0.00,,,0.00,WUHU216DAVISVP2,2013-04-07 05:32:00,
2013-04-07 00:37:00,37.2,33.1,29.83,NNW,339,2.0,4.0,85,0.00,,,0.00,WUHU216DAVISVP2,2013-04-07 05:37:00,
2013-04-07 00:42:00,36.9,33.1,29.83,North,8,1.0,5.0,86,0.00,,,0.00,WUHU216DAVISVP2,2013-04-07 05:42:00,
2013-04-07 00:47:00,36.7,32.9,29.83,NNE,18,1.0,5.0,86,0.00,,,0.00,WUHU216DAVISVP2,2013-04-07 05:47:00,
2013-04-07 00:52:00,36.4,32.6,29.83,NNE,12,2.0,5.0,86,0.00,,,0.00,WUHU216DAVISVP2,2013-04-07 05:52:00,
2013-04-07 00:57:00,36.2,32.7,29.84,North,355,1.0,4.0,87,0.00,,,0.00,WUHU216DAVISVP2,2013-04-07 05:57:00,
2013-04-07 01:02:00,36.0,32.5,29.84,North,7,2.0,4.0,87,0.00,,,0.00,WUHU216DAVISVP2,2013-04-07 06:02:00,
2013-04-07 01:07:00,35.8,32.3,29.84,NNE,25,0.0,4.0,87,0.00,,,0.00,WUHU216DAVISVP2,2013-04-07 06:07:00,
2013-04-07 01:12:00,35.7,32.2,29.84,NNE,24,1.0,3.0,87,0.00,,,0.00,WUHU216DAVISVP2,2013-04-07 06:12:00,
2013-04-07 01:17:00,35.4,31.9,29.84,North,10,1.0,3.0,87,0.00,,,0.00,WUHU216DAVISVP2,2013-04-07 06:17:00,
2013-04-07 01:22:00,35.2,32.0,29.85,NE,35,0.0,4.0,88,0.00,,,0.00,WUHU216DAVISVP2,2013-04-07 06:22:00,
2013-04-07 01:27:00,35.0,31.8,29.85,NNE,19,0.0,4.0,88,0.00,,,0.00,WUHU216DAVISVP2,2013-04-07 06:27:00,
2013-04-07 01:32:00,34.9,31.7,29.85,NE,46,2.0,5.0,88,0.00,,,0.00,WUHU216DAVISVP2,2013-04-07 06:32:00,
2013-04-07 01:37:00,34.7,31.5,29.86,NNE,15,1.0,5.0,88,0.00,,,0.00,WUHU216DAVISVP2,2013-04-07 06:37:00,
2013-04-07 01:42:00,34.5,31.3,29.85,NNE,23,1.0,5.0,88,0.00,,,0.00,WUHU216DAVISVP2,2013-04-07 06:42:00,
2013-04-07 01:47:00,34.3,31.4,29.85,North,349,0.0,5.0,89,0.00,,,0.00,WUHU216DAVISVP2,2013-04-07 06:47:00,
2013-04-07 01:52:00,34.1,31.2,29.85,NNW,343,1.0,4.0,89,0.00,,,0.00,WUHU216DAVISVP2,2013-04-07 06:52:00,
2013-04-07 01:57:00,33.9,31.0,29.85,NE,51,1.0,4.0,89,0.00,,,0.00,WUHU216DAVISVP2,2013-04-07 06:57:00,
2013-04-07 02:02:00,33.6,30.7,29.85,North,6,1.0,4.0,89,0.00,,,0.00,WUHU216DAVISVP2,2013-04-07 07:02:00,
2013-04-07 02:07:00,33.5,30.8,29.85,NNE,23,1.0,3.0,90,0.00,,,0.00,WUHU216DAVISVP2,2013-04-07 07:07:00,
2013-04-07 02:12:00,33.2,30.6,29.86,North,0,1.0,3.0,90,0.00,,,0.00,WUHU216DAVISVP2,2013-04-07 07:12:00,
2013-04-07 02:17:00,33.1,30.4,29.86,NE,38,1.0,3.0,90,0.00,,,0.00,WUHU216DAVISVP2,2013-04-07 07:17:00,
2013-04-07 02:22:00,32.9,30.2,29.85,North,5,2.0,4.0,90,0.00,,,0.00,WUHU216DAVISVP2,2013-04-07 07:22:00,
2013-04-07 02:27:00,32.7,30.3,29.85,North,355,1.0,4.0,91,0.00,,,0.00,WUHU216DAVISVP2,2013-04-07 07:27:00,
2013-04-07 02:32:00,32.6,30.2,29.85,NNW,341,1.0,4.0,91,0.00,,,0.00,WUHU216DAVISVP2,2013-04-07 07:32:00,
2013-04-07 02:37:00,32.5,30.1,29.85,North,11,0.0,4.0,91,0.00,,,0.00,WUHU216DAVISVP2,2013-04-07 07:37:00,
2013-04-07 02:42:00,32.4,30.3,29.85,NE,40,1.0,4.0,92,0.00,,,0.00,WUHU216DAVISVP2,2013-04-07 07:42:00,
2013-04-07 02:47:00,32.3,30.2,29.85,NE,42,2.0,5.0,92,0.00,,,0.00,WUHU216DAVISVP2,2013-04-07 07:47:00,
2013-04-07 02:52:00,32.3,30.2,29.86,NNW,328,2.0,5.0,92,0.00,,,0.00,WUHU216DAVISVP2,2013-04-07 07:52:00,
2013-04-07 02:57:00,32.3,30.2,29.86,NE,53,1.0,5.0,92,0.00,,,0.00,WUHU216DAVISVP2,2013-04-07 07:57:00,
2013-04-07 03:02:00,32.3,30.2,29.85,North,8,3.0,5.0,92,0.00,,,0.00,WUHU216DAVISVP2,2013-04-07 08:02:00,
2013-04-07 03:07:00,32.2,30.4,29.85,NE,44,1.0,5.0,93,0.00,,,0.00,WUHU216DAVISVP2,2013-04-07 08:07:00,
2013-04-07 03:12:00,32.3,30.5,29.85,NNE,32,1.0,5.0,93,0.00,,,0.00,WUHU216DAVISVP2,2013-04-07 08:12:00,
2013-04-07 03:17:00,32.3,30.5,29.85,NE,36,1.0,5.0,93,0.00,,,0.00,WUHU216DAVISVP2,2013-04-07 08:17:00,
2013-04-07 03:22:00,32.2,30.4,29.85,NNE,25,2.0,3.0,93,0.00,,,0.00,WUHU216DAVISVP2,2013-04-07 08:22:00,
2013-04-07 03:27:00,32.1,30.3,29.85,NE,54,1.0,3.0,93,0.00,,,0.00,WUHU216DAVISVP2,2013-04-07 08:27:00,
2013-04-07 03:32:00,32.1,30.3,29.85,NE,55,0.0,3.0,93,0.00,,,0.00,WUHU216DAVISVP2,2013-04-07 08:32:00,
2013-04-07 03:37:00,32.1,30.3,29.85,NE,47,2.0,4.0,93,0.00,,,0.00,WUHU216DAVISVP2,2013-04-07 08:37:00,
2013-04-07 03:42:00,32.1,30.6,29.85,East,83,1.0,4.0,94,0.00,,,0.00,WUHU216DAVISVP2,2013-04-07 08:42:00,
2013-04-07 03:47:00,32.2,30.6,29.85,NW,323,2.0,4.0,94,0.00,,,0.00,WUHU216DAVISVP2,2013-04-07 08:47:00,
2013-04-07 03:52:00,32.2,30.6,29.85,NNE,17,1.0,4.0,94,0.00,,,0.00,WUHU216DAVISVP2,2013-04-07 08:52:00,
2013-04-07 03:57:00,32.2,30.4,29.85,NE,43,2.0,4.0,93,0.00,,,0.00,WUHU216DAVISVP2,2013-04-07 08:57:00,
2013-04-07 04:02:00,32.2,30.6,29.85,ENE,59,0.0,4.0,94,0.00,,,0.00,WUHU216DAVISVP2,2013-04-07 09:02:00,
2013-04-07 04:07:00,32.3,30.7,29.85,NE,45,2.0,4.0,94,0.00,,,0.00,WUHU216DAVISVP2,2013-04-07 09:07:00,
2013-04-07 04:12:00,32.3,30.8,29.85,NE,43,1.0,4.0,94,0.00,,,0.00,WUHU216DAVISVP2,2013-04-07 09:12:00,
2013-04-07 04:17:00,32.3,30.7,29.85,ENE,69,1.0,4.0,94,0.00,,,0.00,WUHU216DAVISVP2,2013-04-07 09:17:00,
2013-04-07 04:22:00,32.4,30.8,29.85,NNE,23,1.0,4.0,94,0.00,,,0.00,WUHU216DAVISVP2,2013-04-07 09:22:00,
2013-04-07 04:27:00,32.4,30.8,29.85,NE,44,2.0,3.0,94,0.00,,,0.00,WUHU216DAVISVP2,2013-04-07 09:27:00,
2013-04-07 04:32:00,32.4,30.8,29.86,NNW,346,2.0,3.0,94,0.00,,,0.00,WUHU216DAVISVP2,2013-04-07 09:32:00,
2013-04-07 04:37:00,32.4,30.6,29.85,North,358,1.0,4.0,93,0.00,,,0.00,WUHU216DAVISVP2,2013-04-07 09:37:00,
2013-04-07 04:42:00,32.5,30.7,29.85,NE,37,1.0,4.0,93,0.00,,,0.00,WUHU216DAVISVP2,2013-04-07 09:42:00,
2013-04-07 04:47:00,32.4,30.6,29.86,ENE,64,2.0,4.0,93,0.00,,,0.00,WUHU216DAVISVP2,2013-04-07 09:47:00,
2013-04-07 04:52:00,32.3,30.5,29.86,NE,45,1.0,4.0,93,0.00,,,0.00,WUHU216DAVISVP2,2013-04-07 09:52:00,
2013-04-07 04:58:00,32.3,30.5,29.86,NNE,25,1.0,4.0,93,0.00,,,0.00,WUHU216DAVISVP2,2013-04-07 09:58:00,
2013-04-07 05:03:00,32.3,30.7,29.86,NE,38,1.0,4.0,94,0.00,,,0.00,WUHU216DAVISVP2,2013-04-07 10:03:00,
2013-04-07 05:08:00,32.4,30.8,29.86,ENE,72,0.0,4.0,94,0.00,,,0.00,WUHU216DAVISVP2,2013-04-07 10:08:00,
2013-04-07 05:13:00,32.5,30.9,29.86,NNW,345,1.0,4.0,94,0.00,,,0.00,WUHU216DAVISVP2,2013-04-07 10:13:00,
2013-04-07 05:18:00,32.5,30.7,29.87,NE,53,1.0,4.0,93,0.00,,,0.00,WUHU216DAVISVP2,2013-04-07 10:18:00,
2013-04-07 05:23:00,32.4,30.6,29.86,NE,44,2.0,4.0,93,0.00,,,0.00,WUHU216DAVISVP2,2013-04-07 10:23:00,
2013-04-07 05:28:00,32.4,30.6,29.87,East,96,2.0,4.0,93,0.00,,,0.00,WUHU216DAVISVP2,2013-04-07 10:28:00,
2013-04-07 05:33:00,32.4,30.6,29.87,ENE,64,1.0,4.0,93,0.00,,,0.00,WUHU216DAVISVP2,2013-04-07 10:33:00,
2013-04-07 05:38:00,32.4,30.6,29.87,NE,49,1.0,4.0,93,0.00,,,0.00,WUHU216DAVISVP2,2013-04-07 10:38:00,
2013-04-07 05:43:00,32.2,30.4,29.87,NE,49,1.0,4.0,93,0.00,,,0.00,WUHU216DAVISVP2,2013-04-07 10:43:00,
2013-04-07 05:48:00,32.1,30.3,29.87,ENE,66,0.0,3.0,93,0.00,,,0.00,WUHU216DAVISVP2,2013-04-07 10:48:00,
2013-04-07 05:53:00,32.1,30.3,29.87,ENE,59,0.0,2.0,93,0.00,,,0.00,WUHU216DAVISVP2,2013-04-07 10:53:00,
2013-04-07 05:58:00,32.1,30.6,29.87,East,84,0.0,2.0,94,0.00,,,0.00,WUHU216DAVISVP2,2013-04-07 10:58:00,
2013-04-07 06:03:00,32.2,30.4,29.86,NE,54,1.0,3.0,93,0.00,,,0.00,WUHU216DAVISVP2,2013-04-07 11:03:00,
2013-04-07 06:08:00,32.1,30.3,29.87,NNE,20,1.0,3.0,93,0.00,,,0.00,WUHU216DAVISVP2,2013-04-07 11:08:00,
2013-04-07 06:13:00,32.0,30.2,29.87,NE,38,1.0,3.0,93,0.00,,,0.00,WUHU216DAVISVP2,2013-04-07 11:13:00,
2013-04-07 06:18:00,32.1,30.6,29.87,NE,54,1.0,3.0,94,0.00,,,0.00,WUHU216DAVISVP2,2013-04-07 11:18:00,
2013-04-07 06:23:00,32.0,30.2,29.87,ESE,102,0.0,4.0,93,0.00,,,0.00,WUHU216DAVISVP2,2013-04-07 11:23:00,
2013-04-07 06:28:00,31.9,30.1,29.87,ESE,105,2.0,5.0,93,0.00,,,0.00,WUHU216DAVISVP2,2013-04-07 11:28:00,
2013-04-07 06:33:00,31.7,29.9,29.87,ENE,58,1.0,5.0,93,0.00,,,0.00,WUHU216DAVISVP2,2013-04-07 11:33:00,
2013-04-07 06:38:00,31.7,30.2,29.87,East,81,2.0,5.0,94,0.00,,,0.00,WUHU216DAVISVP2,2013-04-07 11:38:00,
2013-04-07 06:43:00,31.8,30.2,29.88,ENE,78,1.0,5.0,94,0.00,,,0.00,WUHU216DAVISVP2,2013-04-07 11:43:00,
2013-04-07 06:48:00,31.9,30.3,29.88,East,97,0.0,3.0,94,0.00,,,0.00,WUHU216DAVISVP2,2013-04-07 11:48:00,
2013-04-07 06:53:00,31.9,30.3,29.88,ENE,75,0.0,3.0,94,0.00,,,0.00,WUHU216DAVISVP2,2013-04-07 11:53:00,
2013-04-07 06:58:00,31.8,30.2,29.88,NE,41,0.0,3.0,94,0.00,,,0.00,WUHU216DAVISVP2,2013-04-07 11:58:00,
2013-04-07 07:03:00,31.8,30.2,29.88,NE,44,1.0,3.0,94,0.00,,,0.00,WUHU216DAVISVP2,2013-04-07 12:03:00,
2013-04-07 07:08:00,31.8,30.2,29.88,NE,56,2.0,6.0,94,0.00,,,0.00,WUHU216DAVISVP2,2013-04-07 12:08:00,
2013-04-07 07:13:00,31.7,30.1,29.88,East,83,2.0,6.0,94,0.00,,,0.00,WUHU216DAVISVP2,2013-04-07 12:13:00,
2013-04-07 07:18:00,31.5,29.9,29.89,ENE,61,1.0,6.0,94,0.00,,,0.00,WUHU216DAVISVP2,2013-04-07 12:18:00,
2013-04-07 07:23:00,31.5,29.9,29.89,ENE,58,0.0,6.0,94,0.00,,,0.00,WUHU216DAVISVP2,2013-04-07 12:23:00,
2013-04-07 07:28:00,31.6,30.0,29.89,East,87,1.0,5.0,94,0.00,,,0.00,WUHU216DAVISVP2,2013-04-07 12:28:00,
2013-04-07 07:33:00,31.7,30.1,29.88,NE,52,1.0,3.0,94,0.00,,,0.00,WUHU216DAVISVP2,2013-04-07 12:33:00,
2013-04-07 07:38:00,31.7,30.1,29.89,ENE,65,1.0,4.0,94,0.00,,,0.00,WUHU216DAVISVP2,2013-04-07 12:38:00,
2013-04-07 07:43:00,31.6,30.0,29.89,ENE,64,1.0,4.0,94,0.00,,,0.00,WUHU216DAVISVP2,2013-04-07 12:43:00,
2013-04-07 07:48:00,31.5,29.9,29.89,ESE,103,0.0,4.0,94,0.00,,,0.00,WUHU216DAVISVP2,2013-04-07 12:48:00,
2013-04-07 07:53:00,31.6,30.0,29.89,SE,139,1.0,4.0,94,0.00,,,0.00,WUHU216DAVISVP2,2013-04-07 12:53:00,
2013-04-07 07:58:00,31.7,30.1,29.90,East,86,1.0,5.0,94,0.00,,,0.00,WUHU216DAVISVP2,2013-04-07 12:58:00,
2013-04-07 08:03:00,31.8,30.2,29.90,ESE,118,1.0,5.0,94,0.00,,,0.00,WUHU216DAVISVP2,2013-04-07 13:03:00,
2013-04-07 08:08:00,31.8,30.2,29.90,East,94,2.0,5.0,94,0.00,,,0.00,WUHU216DAVISVP2,2013-04-07 13:08:00,
2013-04-07 08:13:00,31.8,30.2,29.90,NE,53,0.0,5.0,94,0.00,,,0.00,WUHU216DAVISVP2,2013-04-07 13:13:00,
2013-04-07 08:18:00,31.8,30.2,29.91,ENE,75,1.0,5.0,94,0.00,,,0.00,WUHU216DAVISVP2,2013-04-07 13:18:00,
2013-04-07 08:23:00,31.9,30.3,29.90,ENE,73,1.0,5.0,94,0.00,,,0.00,WUHU216DAVISVP2,2013-04-07 13:23:00,
2013-04-07 08:28:00,32.0,30.4,29.90,ENE,70,2.0,5.0,94,0.00,,,0.00,WUHU216DAVISVP2,2013-04-07 13:28:00,
2013-04-07 08:33:00,32.0,30.4,29.91,NE,43,0.0,5.0,94,0.00,,,0.00,WUHU216DAVISVP2,2013-04-07 13:33:00,
2013-04-07 08:38:00,32.1,30.3,29.90,ENE,72,2.0,5.0,93,0.00,,,0.00,WUHU216DAVISVP2,2013-04-07 13:38:00,
2013-04-07 08:43:00,32.1,30.3,29.90,East,95,4.0,5.0,93,0.00,,,0.00,WUHU216DAVISVP2,2013-04-07 13:43:00,
2013-04-07 08:48:00,32.0,30.2,29.90,ESE,105,4.0,5.0,93,0.00,,,0.00,WUHU216DAVISVP2,2013-04-07 13:48:00,
2013-04-07 08:53:00,32.1,30.5,29.90,East,92,0.0,5.0,94,0.00,,,0.00,WUHU216DAVISVP2,2013-04-07 13:53:00,
2013-04-07 08:58:00,32.1,30.3,29.90,East,94,1.0,6.0,93,0.00,,,0.00,WUHU216DAVISVP2,2013-04-07 13:58:00,
2013-04-07 09:03:00,32.0,30.2,29.90,ENE,65,4.0,6.0,93,0.00,,,0.00,WUHU216DAVISVP2,2013-04-07 14:03:00,
2013-04-07 09:08:00,31.9,30.1,29.90,ENE,63,2.0,6.0,93,0.00,,,0.00,WUHU216DAVISVP2,2013-04-07 14:08:00,
2013-04-07 09:13:00,32.1,30.3,29.90,East,87,1.0,6.0,93,0.00,,,0.00,WUHU216DAVISVP2,2013-04-07 14:13:00,
2013-04-07 09:18:00,32.4,30.9,29.90,ESE,104,2.0,7.0,94,0.00,,,0.00,WUHU216DAVISVP2,2013-04-07 14:18:00,
2013-04-07 09:23:00,32.4,30.6,29.90,East,91,1.0,9.0,93,0.00,,,0.00,WUHU216DAVISVP2,2013-04-07 14:23:00,
2013-04-07 09:28:00,32.6,30.8,29.89,ENE,74,4.0,9.0,93,0.00,,,0.00,WUHU216DAVISVP2,2013-04-07 14:28:00,
2013-04-07 09:33:00,32.9,31.1,29.89,East,91,4.0,9.0,93,0.00,,,0.00,WUHU216DAVISVP2,2013-04-07 14:33:00,
2013-04-07 09:38:00,33.0,30.9,29.89,East,81,2.0,9.0,92,0.00,,,0.00,WUHU216DAVISVP2,2013-04-07 14:38:00,
2013-04-07 09:44:00,33.3,31.2,29.88,ENE,76,2.0,7.0,92,0.00,,,0.00,WUHU216DAVISVP2,2013-04-07 14:44:00,
2013-04-07 09:49:00,33.6,31.3,29.88,ESE,113,3.0,7.0,91,0.00,,,0.00,WUHU216DAVISVP2,2013-04-07 14:49:00,
2013-04-07 09:54:00,33.6,30.9,29.88,ESE,120,2.0,7.0,90,0.00,,,0.00,WUHU216DAVISVP2,2013-04-07 14:54:00,
2013-04-07 09:59:00,33.6,30.9,29.88,ENE,70,3.0,7.0,90,0.00,,,0.00,WUHU216DAVISVP2,2013-04-07 14:59:00,
2013-04-07 10:05:00,33.9,31.2,29.88,East,95,2.0,6.0,90,0.00,,,0.00,WUHU216DAVISVP2,2013-04-07 15:05:00,
2013-04-07 10:10:00,34.2,31.3,29.88,SE,129,2.0,6.0,89,0.00,,,0.00,WUHU216DAVISVP2,2013-04-07 15:10:00,
2013-04-07 10:15:00,34.3,31.4,29.88,East,89,4.0,7.0,89,0.00,,,0.00,WUHU216DAVISVP2,2013-04-07 15:15:00,
2013-04-07 10:20:00,34.5,31.5,29.88,East,92,2.0,7.0,89,0.00,,,0.00,WUHU216DAVISVP2,2013-04-07 15:20:00,
2013-04-07 10:25:00,35.0,31.8,29.88,East,87,3.0,7.0,88,0.00,,,0.00,WUHU216DAVISVP2,2013-04-07 15:25:00,
2013-04-07 10:30:00,36.1,32.3,29.87,ENE,68,4.0,7.0,86,0.00,,,0.00,WUHU216DAVISVP2,2013-04-07 15:30:00,
2013-04-07 10:35:00,36.5,32.4,29.87,ENE,67,4.0,7.0,85,0.00,,,0.00,WUHU216DAVISVP2,2013-04-07 15:35:00,
2013-04-07 10:40:00,36.7,32.6,29.87,ENE,74,8.0,8.0,85,0.00,,,0.00,WUHU216DAVISVP2,2013-04-07 15:40:00,
2013-04-07 10:45:00,37.3,32.9,29.87,ENE,69,2.0,8.0,84,0.00,,,0.00,WUHU216DAVISVP2,2013-04-07 15:45:00,
2013-04-07 10:50:00,37.4,32.7,29.86,East,92,2.0,8.0,83,0.00,,,0.00,WUHU216DAVISVP2,2013-04-07 15:50:00,
2013-04-07 10:55:00,37.6,32.6,29.86,ENE,76,4.0,12.0,82,0.00,,,0.00,WUHU216DAVISVP2,2013-04-07 15:55:00,
2013-04-07 11:01:00,38.1,33.1,29.86,ENE,70,4.0,12.0,82,0.00,,,0.00,WUHU216DAVISVP2,2013-04-07 16:01:00,
2013-04-07 11:06:00,38.5,33.2,29.86,East,88,2.0,12.0,81,0.00,,,0.00,WUHU216DAVISVP2,2013-04-07 16:06:00,
2013-04-07 11:11:00,38.9,32.9,29.85,East,85,5.0,12.0,79,0.00,,,0.00,WUHU216DAVISVP2,2013-04-07 16:11:00,
2013-04-07 11:16:00,39.7,33.4,29.85,ENE,65,5.0,12.0,78,0.00,,,0.00,WUHU216DAVISVP2,2013-04-07 16:16:00,
2013-04-07 11:21:00,40.1,33.5,29.84,ENE,71,6.0,12.0,77,0.00,,,0.00,WUHU216DAVISVP2,2013-04-07 16:21:00,
2013-04-07 11:26:00,40.6,33.6,29.84,NE,44,4.0,12.0,76,0.00,,,0.00,WUHU216DAVISVP2,2013-04-07 16:26:00,
2013-04-07 11:31:00,40.6,34.0,29.83,East,79,10.0,14.0,77,0.00,,,0.00,WUHU216DAVISVP2,2013-04-07 16:31:00,
2013-04-07 11:36:00,41.4,34.1,29.83,East,84,5.0,14.0,75,0.00,,,0.00,WUHU216DAVISVP2,2013-04-07 16:36:00,
2013-04-07 11:42:00,42.5,34.9,29.83,SE,141,4.0,14.0,74,0.00,,,0.00,WUHU216DAVISVP2,2013-04-07 16:42:00,
2013-04-07 11:47:00,43.0,34.3,29.83,East,90,3.0,10.0,71,0.00,,,0.00,WUHU216DAVISVP2,2013-04-07 16:47:00,
2013-04-07 11:52:00,43.5,34.8,29.82,East,99,4.0,10.0,71,0.00,,,0.00,WUHU216DAVISVP2,2013-04-07 16:52:00,
2013-04-07 11:57:00,44.0,34.9,29.82,NE,34,3.0,12.0,70,0.00,,,0.00,WUHU216DAVISVP2,2013-04-07 16:57:00,
2013-04-07 12:02:00,44.6,35.1,29.84,ESE,113,3.0,12.0,69,0.00,,,0.00,WUHU216DAVISVP2,2013-04-07 17:02:00,
2013-04-07 12:07:00,45.4,35.2,29.83,East,82,5.0,12.0,67,0.00,,,0.00,WUHU216DAVISVP2,2013-04-07 17:07:00,
2013-04-07 12:12:00,46.1,35.8,29.83,East,99,5.0,12.0,67,0.00,,,0.00,WUHU216DAVISVP2,2013-04-07 17:12:00,
2013-04-07 12:17:00,47.0,36.3,29.83,SE,131,3.0,7.0,66,0.00,,,0.00,WUHU216DAVISVP2,2013-04-07 17:17:00,
2013-04-07 12:22:00,47.6,35.7,29.82,ESE,114,4.0,7.0,63,0.00,,,0.00,WUHU216DAVISVP2,2013-04-07 17:22:00,
2013-04-07 12:27:00,47.9,36.4,29.82,SE,139,2.0,8.0,64,0.00,,,0.00,WUHU216DAVISVP2,2013-04-07 17:27:00,
2013-04-07 12:32:00,48.9,36.5,29.81,WNW,285,3.0,8.0,62,0.00,,,0.00,WUHU216DAVISVP2,2013-04-07 17:32:00,
2013-04-07 12:37:00,49.3,36.1,29.81,East,101,6.0,10.0,60,0.00,,,0.00,WUHU216DAVISVP2,2013-04-07 17:37:00,
2013-04-07 12:42:00,48.8,36.0,29.81,ENE,67,5.0,12.0,61,0.00,,,0.00,WUHU216DAVISVP2,2013-04-07 17:42:00,
2013-04-07 12:47:00,49.5,36.3,29.81,ESE,105,7.0,12.0,60,0.00,,,0.00,WUHU216DAVISVP2,2013-04-07 17:47:00,
2013-04-07 12:52:00,50.1,36.8,29.80,SE,136,2.0,12.0,60,0.00,,,0.00,WUHU216DAVISVP2,2013-04-07 17:52:00,
2013-04-07 12:57:00,50.6,36.4,29.80,ESE,114,4.0,14.0,58,0.00,,,0.00,WUHU216DAVISVP2,2013-04-07 17:57:00,
2013-04-07 13:02:00,50.9,36.3,29.80,SE,126,5.0,14.0,57,0.00,,,0.00,WUHU216DAVISVP2,2013-04-07 18:02:00,
2013-04-07 13:07:00,50.8,36.6,29.79,East,98,7.0,14.0,58,0.00,,,0.00,WUHU216DAVISVP2,2013-04-07 18:07:00,
2013-04-07 13:12:00,51.4,37.2,29.79,SSE,152,3.0,14.0,58,0.00,,,0.00,WUHU216DAVISVP2,2013-04-07 18:12:00,
2013-04-07 13:17:00,52.1,36.9,29.79,ESE,115,3.0,9.0,56,0.00,,,0.00,WUHU216DAVISVP2,2013-04-07 18:17:00,
2013-04-07 13:22:00,52.0,36.8,29.78,ESE,105,4.0,9.0,56,0.00,,,0.00,WUHU216DAVISVP2,2013-04-07 18:22:00,
2013-04-07 13:27:00,52.2,37.0,29.79,SE,139,5.0,9.0,56,0.00,,,0.00,WUHU216DAVISVP2,2013-04-07 18:27:00,
2013-04-07 13:32:00,52.3,37.1,29.79,SSE,160,3.0,9.0,56,0.00,,,0.00,WUHU216DAVISVP2,2013-04-07 18:32:00,
2013-04-07 13:37:00,51.6,36.9,29.79,ESE,114,4.0,9.0,57,0.00,,,0.00,WUHU216DAVISVP2,2013-04-07 18:37:00,
2013-04-07 13:42:00,51.7,37.0,29.79,SSE,153,2.0,10.0,57,0.00,,,0.00,WUHU216DAVISVP2,2013-04-07 18:42:00,
2013-04-07 13:47:00,52.1,36.9,29.79,SE,145,3.0,10.0,56,0.00,,,0.00,WUHU216DAVISVP2,2013-04-07 18:47:00,
2013-04-07 13:52:00,51.9,36.8,29.79,SE,125,4.0,10.0,56,0.00,,,0.00,WUHU216DAVISVP2,2013-04-07 18:52:00,
2013-04-07 13:58:00,51.4,36.7,29.79,SE,132,3.0,10.0,57,0.00,,,0.00,WUHU216DAVISVP2,2013-04-07 18:58:00,
2013-04-07 14:03:00,51.3,37.1,29.79,ESE,104,3.0,10.0,58,0.00,,,0.00,WUHU216DAVISVP2,2013-04-07 19:03:00,
2013-04-07 14:08:00,51.5,37.3,29.78,ESE,108,5.0,10.0,58,0.00,,,0.00,WUHU216DAVISVP2,2013-04-07 19:08:00,
2013-04-07 14:13:00,51.2,37.0,29.78,SSE,147,5.0,10.0,58,0.00,,,0.00,WUHU216DAVISVP2,2013-04-07 19:13:00,
2013-04-07 14:18:00,51.1,36.9,29.77,East,79,6.0,10.0,58,0.00,,,0.00,WUHU216DAVISVP2,2013-04-07 19:18:00,
2013-04-07 14:23:00,51.1,37.3,29.77,ESE,122,2.0,10.0,59,0.00,,,0.00,WUHU216DAVISVP2,2013-04-07 19:23:00,
2013-04-07 14:28:00,51.4,37.6,29.77,SE,126,3.0,7.0,59,0.00,,,0.00,WUHU216DAVISVP2,2013-04-07 19:28:00,
2013-04-07 14:33:00,51.3,37.5,29.77,ESE,117,3.0,7.0,59,0.00,,,0.00,WUHU216DAVISVP2,2013-04-07 19:33:00,
2013-04-07 14:38:00,51.7,37.9,29.77,East,101,7.0,11.0,59,0.00,,,0.00,WUHU216DAVISVP2,2013-04-07 19:38:00,
2013-04-07 14:43:00,52.1,38.3,29.76,East,93,1.0,11.0,59,0.00,,,0.00,WUHU216DAVISVP2,2013-04-07 19:43:00,
2013-04-07 14:48:00,52.7,38.0,29.77,SE,134,2.0,11.0,57,0.00,,,0.00,WUHU216DAVISVP2,2013-04-07 19:48:00,
2013-04-07 14:53:00,53.4,38.6,29.77,SE,146,2.0,11.0,57,0.00,,,0.00,WUHU216DAVISVP2,2013-04-07 19:53:00,
2013-04-07 14:58:00,54.3,38.9,29.76,ESE,113,3.0,11.0,56,0.00,,,0.00,WUHU216DAVISVP2,2013-04-07 19:58:00,
2013-04-07 15:03:00,53.8,38.5,29.76,ESE,116,3.0,11.0,56,0.00,,,0.00,WUHU216DAVISVP2,2013-04-07 20:03:00,
2013-04-07 15:08:00,53.6,38.3,29.76,NE,37,4.0,6.0,56,0.00,,,0.00,WUHU216DAVISVP2,2013-04-07 20:08:00,
2013-04-07 15:13:00,53.1,38.3,29.76,East,96,3.0,6.0,57,0.00,,,0.00,WUHU216DAVISVP2,2013-04-07 20:13:00,
2013-04-07 15:18:00,52.8,38.5,29.76,ESE,103,1.0,6.0,58,0.00,,,0.00,WUHU216DAVISVP2,2013-04-07 20:18:00,
2013-04-07 15:23:00,52.6,38.3,29.76,East,98,4.0,8.0,58,0.00,,,0.00,WUHU216DAVISVP2,2013-04-07 20:23:00,
2013-04-07 15:28:00,52.3,38.5,29.76,SSE,151,2.0,8.0,59,0.00,,,0.00,WUHU216DAVISVP2,2013-04-07 20:28:00,
2013-04-07 15:33:00,52.6,38.3,29.76,ESE,112,2.0,8.0,58,0.00,,,0.00,WUHU216DAVISVP2,2013-04-07 20:33:00,
2013-04-07 15:38:00,52.7,38.3,29.77,SE,143,4.0,8.0,58,0.00,,,0.00,WUHU216DAVISVP2,2013-04-07 20:38:00,
2013-04-07 15:43:00,52.8,38.4,29.77,SE,131,2.0,6.0,58,0.00,,,0.00,WUHU216DAVISVP2,2013-04-07 20:43:00,
2013-04-07 15:48:00,52.9,39.1,29.77,SE,140,1.0,6.0,59,0.00,,,0.00,WUHU216DAVISVP2,2013-04-07 20:48:00,
2013-04-07 15:54:00,52.8,40.2,29.76,East,98,2.0,6.0,62,0.00,,,0.00,WUHU216DAVISVP2,2013-04-07 20:54:00,
2013-04-07 15:59:00,52.4,40.7,29.76,SE,136,1.0,4.0,64,0.00,,,0.00,WUHU216DAVISVP2,2013-04-07 20:59:00,
2013-04-07 16:04:00,52.0,41.9,29.76,SE,145,2.0,4.0,68,0.00,,,0.00,WUHU216DAVISVP2,2013-04-07 21:04:00,
2013-04-07 16:09:00,51.5,42.1,29.76,SSE,153,0.0,4.0,70,0.00,,,0.00,WUHU216DAVISVP2,2013-04-07 21:09:00,
2013-04-07 16:14:00,51.2,42.2,29.76,SE,128,0.0,4.0,71,0.00,,,0.00,WUHU216DAVISVP2,2013-04-07 21:14:00,
2013-04-07 16:19:00,51.2,41.7,29.75,SE,137,1.0,3.0,70,0.00,,,0.00,WUHU216DAVISVP2,2013-04-07 21:19:00,
2013-04-07 16:24:00,51.3,41.5,29.75,SE,140,1.0,3.0,69,0.00,,,0.00,WUHU216DAVISVP2,2013-04-07 21:24:00,
2013-04-07 16:29:00,51.4,41.6,29.75,ESE,121,1.0,3.0,69,0.00,,,0.00,WUHU216DAVISVP2,2013-04-07 21:29:00,
2013-04-07 16:35:00,51.6,41.8,29.75,ENE,73,2.0,3.0,69,0.00,,,0.00,WUHU216DAVISVP2,2013-04-07 21:35:00,
2013-04-07 16:40:00,51.8,42.1,29.75,SSE,155,1.0,3.0,69,0.00,,,0.00,WUHU216DAVISVP2,2013-04-07 21:40:00,
2013-04-07 16:45:00,52.0,41.8,29.75,ESE,108,2.0,3.0,68,0.00,,,0.00,WUHU216DAVISVP2,2013-04-07 21:45:00,
2013-04-07 16:50:00,52.0,42.3,29.75,SE,126,1.0,3.0,69,0.00,,,0.00,WUHU216DAVISVP2,2013-04-07 21:50:00,
2013-04-07 16:55:00,52.1,42.2,29.75,ESE,103,6.0,6.0,69,0.00,,,0.00,WUHU216DAVISVP2,2013-04-07 21:55:00,
2013-04-07 17:00:00,52.0,42.6,29.75,SE,142,3.0,6.0,70,0.00,,,0.00,WUHU216DAVISVP2,2013-04-07 22:00:00,
2013-04-07 17:05:00,51.8,42.8,29.75,SSE,156,1.0,6.0,71,0.01,,,0.01,WUHU216DAVISVP2,2013-04-07 22:05:00,
2013-04-07 17:10:00,51.6,42.9,29.75,SE,136,0.0,6.0,72,0.01,,,0.01,WUHU216DAVISVP2,2013-04-07 22:10:00,
2013-04-07 17:15:00,51.3,43.4,29.75,East,98,1.0,4.0,74,0.01,,,0.01,WUHU216DAVISVP2,2013-04-07 22:15:00,
2013-04-07 17:20:00,51.1,43.5,29.75,SE,136,0.0,3.0,75,0.01,,,0.01,WUHU216DAVISVP2,2013-04-07 22:20:00,
2013-04-07 17:25:00,50.8,43.2,29.75,ESE,106,1.0,3.0,75,0.01,,,0.01,WUHU216DAVISVP2,2013-04-07 22:25:00,
2013-04-07 17:30:00,50.7,43.8,29.75,ESE,116,0.0,3.0,77,0.01,,,0.01,WUHU216DAVISVP2,2013-04-07 22:30:00,
2013-04-07 17:35:00,50.6,44.4,29.75,ESE,105,0.0,3.0,79,0.02,,,0.02,WUHU216DAVISVP2,2013-04-07 22:35:00,
2013-04-07 17:40:00,50.3,44.4,29.75,SE,124,0.0,3.0,80,0.02,,,0.02,WUHU216DAVISVP2,2013-04-07 22:40:00,
2013-04-07 17:45:00,50.1,44.8,29.75,SE,129,0.0,0.0,82,0.03,,,0.03,WUHU216DAVISVP2,2013-04-07 22:45:00,
2013-04-07 17:51:00,49.8,44.9,29.74,ESE,102,0.0,0.0,83,0.03,,,0.03,WUHU216DAVISVP2,2013-04-07 22:51:00,
2013-04-07 17:56:00,49.5,45.2,29.75,SE,132,0.0,0.0,85,0.04,,,0.04,WUHU216DAVISVP2,2013-04-07 22:56:00,
2013-04-07 18:01:00,49.2,44.9,29.75,ESE,121,0.0,0.0,85,0.05,,,0.05,WUHU216DAVISVP2,2013-04-07 23:01:00,
2013-04-07 18:06:00,48.9,44.9,29.75,ESE,112,0.0,3.0,86,0.04,,,0.05,WUHU216DAVISVP2,2013-04-07 23:06:00,
2013-04-07 18:11:00,48.7,44.7,29.75,SE,131,0.0,3.0,86,0.05,,,0.06,WUHU216DAVISVP2,2013-04-07 23:11:00,
2013-04-07 18:16:00,48.5,44.8,29.75,ESE,115,0.0,3.0,87,0.05,,,0.06,WUHU216DAVISVP2,2013-04-07 23:16:00,
2013-04-07 18:22:00,48.4,45.0,29.75,ESE,122,0.0,3.0,88,0.05,,,0.06,WUHU216DAVISVP2,2013-04-07 23:22:00,
2013-04-07 18:27:00,48.3,44.9,29.75,ESE,120,0.0,2.0,88,0.05,,,0.06,WUHU216DAVISVP2,2013-04-07 23:27:00,
2013-04-07 18:32:00,48.2,45.1,29.75,ESE,121,0.0,2.0,89,0.05,,,0.06,WUHU216DAVISVP2,2013-04-07 23:32:00,
2013-04-07 18:37:00,48.1,45.0,29.74,East,101,0.0,2.0,89,0.04,,,0.06,WUHU216DAVISVP2,2013-04-07 23:37:00,
2013-04-07 18:42:00,47.9,44.8,29.74,ESE,117,1.0,2.0,89,0.04,,,0.06,WUHU216DAVISVP2,2013-04-07 23:42:00,
2013-04-07 18:47:00,47.9,44.8,29.74,ENE,75,2.0,2.0,89,0.04,,,0.07,WUHU216DAVISVP2,2013-04-07 23:47:00,
2013-04-07 18:52:00,47.7,44.6,29.73,ESE,105,1.0,4.0,89,0.04,,,0.07,WUHU216DAVISVP2,2013-04-07 23:52:00,
2013-04-07 18:57:00,47.6,44.8,29.73,ESE,112,1.0,4.0,90,0.03,,,0.07,WUHU216DAVISVP2,2013-04-07 23:57:00,
2013-04-07 19:02:00,47.6,44.8,29.73,ESE,105,1.0,4.0,90,0.02,,,0.07,WUHU216DAVISVP2,2013-04-08 00:02:00,
2013-04-07 19:07:00,47.5,44.7,29.73,ESE,115,1.0,4.0,90,0.02,,,0.07,WUHU216DAVISVP2,2013-04-08 00:07:00,
2013-04-07 19:12:00,47.5,45.0,29.73,SE,146,1.0,4.0,91,0.01,,,0.07,WUHU216DAVISVP2,2013-04-08 00:12:00,
2013-04-07 19:17:00,47.4,44.9,29.74,ESE,120,1.0,4.0,91,0.01,,,0.07,WUHU216DAVISVP2,2013-04-08 00:17:00,
2013-04-07 19:22:00,47.3,44.8,29.73,ESE,108,1.0,3.0,91,0.02,,,0.08,WUHU216DAVISVP2,2013-04-08 00:22:00,
2013-04-07 19:27:00,47.3,44.8,29.73,ESE,110,1.0,3.0,91,0.04,,,0.10,WUHU216DAVISVP2,2013-04-08 00:27:00,
2013-04-07 19:32:00,47.2,45.0,29.73,ESE,108,1.0,3.0,92,0.05,,,0.11,WUHU216DAVISVP2,2013-04-08 00:32:00,
2013-04-07 19:37:00,47.1,44.9,29.72,ESE,105,2.0,4.0,92,0.06,,,0.12,WUHU216DAVISVP2,2013-04-08 00:37:00,
2013-04-07 19:42:00,46.9,44.7,29.72,East,96,3.0,4.0,92,0.06,,,0.12,WUHU216DAVISVP2,2013-04-08 00:42:00,
2013-04-07 19:47:00,46.9,44.7,29.72,ESE,117,2.0,4.0,92,0.06,,,0.13,WUHU216DAVISVP2,2013-04-08 00:47:00,
2013-04-07 19:52:00,46.8,44.6,29.71,East,92,2.0,4.0,92,0.06,,,0.13,WUHU216DAVISVP2,2013-04-08 00:52:00,
2013-04-07 19:57:00,46.8,44.6,29.71,ENE,70,1.0,4.0,92,0.06,,,0.13,WUHU216DAVISVP2,2013-04-08 00:57:00,
2013-04-07 20:02:00,46.7,44.7,29.70,East,96,3.0,6.0,93,0.06,,,0.13,WUHU216DAVISVP2,2013-04-08 01:02:00,
2013-04-07 20:07:00,46.7,44.8,29.70,ENE,65,5.0,7.0,93,0.06,,,0.13,WUHU216DAVISVP2,2013-04-08 01:07:00,
2013-04-07 20:12:00,46.7,44.8,29.69,East,83,2.0,7.0,93,0.06,,,0.13,WUHU216DAVISVP2,2013-04-08 01:12:00,
2013-04-07 20:17:00,46.7,44.7,29.69,ESE,116,3.0,7.0,93,0.06,,,0.13,WUHU216DAVISVP2,2013-04-08 01:17:00,
2013-04-07 20:22:00,46.7,44.7,29.69,East,80,3.0,7.0,93,0.05,,,0.13,WUHU216DAVISVP2,2013-04-08 01:22:00,
2013-04-07 20:27:00,46.7,44.7,29.70,East,84,2.0,6.0,93,0.03,,,0.13,WUHU216DAVISVP2,2013-04-08 01:27:00,
2013-04-07 20:32:00,46.8,44.8,29.70,NE,39,0.0,6.0,93,0.02,,,0.13,WUHU216DAVISVP2,2013-04-08 01:32:00,
2013-04-07 20:37:00,46.8,44.8,29.70,ENE,65,2.0,6.0,93,0.01,,,0.13,WUHU216DAVISVP2,2013-04-08 01:37:00,
2013-04-07 20:42:00,46.8,44.6,29.70,East,80,2.0,5.0,92,0.01,,,0.13,WUHU216DAVISVP2,2013-04-08 01:42:00,
2013-04-07 20:47:00,46.8,44.6,29.71,ESE,102,1.0,5.0,92,0.00,,,0.13,WUHU216DAVISVP2,2013-04-08 01:47:00,
2013-04-07 20:53:00,46.8,44.6,29.71,ESE,105,2.0,5.0,92,0.00,,,0.13,WUHU216DAVISVP2,2013-04-08 01:53:00,
2013-04-07 20:58:00,46.8,44.6,29.71,ENE,73,6.0,6.0,92,0.00,,,0.13,WUHU216DAVISVP2,2013-04-08 01:58:00,
2013-04-07 21:03:00,46.8,44.6,29.71,ESE,114,1.0,6.0,92,0.00,,,0.13,WUHU216DAVISVP2,2013-04-08 02:03:00,
2013-04-07 21:08:00,46.8,44.6,29.72,ENE,75,1.0,6.0,92,0.00,,,0.13,WUHU216DAVISVP2,2013-04-08 02:08:00,
2013-04-07 21:13:00,46.8,44.8,29.71,East,99,2.0,6.0,93,0.01,,,0.14,WUHU216DAVISVP2,2013-04-08 02:13:00,
2013-04-07 21:18:00,46.7,44.7,29.70,ESE,117,3.0,6.0,93,0.02,,,0.15,WUHU216DAVISVP2,2013-04-08 02:18:00,
2013-04-07 21:23:00,46.7,44.7,29.70,ESE,110,2.0,6.0,93,0.03,,,0.16,WUHU216DAVISVP2,2013-04-08 02:23:00,
2013-04-07 21:28:00,46.6,44.6,29.70,East,87,2.0,6.0,93,0.03,,,0.16,WUHU216DAVISVP2,2013-04-08 02:28:00,
2013-04-07 21:33:00,46.6,44.6,29.69,East,93,3.0,7.0,93,0.03,,,0.16,WUHU216DAVISVP2,2013-04-08 02:33:00,
2013-04-07 21:38:00,46.6,44.6,29.70,East,93,1.0,7.0,93,0.03,,,0.16,WUHU216DAVISVP2,2013-04-08 02:38:00,
2013-04-07 21:43:00,46.5,44.5,29.70,ESE,104,1.0,7.0,93,0.03,,,0.16,WUHU216DAVISVP2,2013-04-08 02:43:00,
2013-04-07 21:48:00,46.5,44.5,29.71,ENE,77,2.0,7.0,93,0.03,,,0.16,WUHU216DAVISVP2,2013-04-08 02:48:00,
2013-04-07 21:53:00,46.5,44.5,29.70,ENE,70,1.0,5.0,93,0.03,,,0.16,WUHU216DAVISVP2,2013-04-08 02:53:00,
2013-04-07 21:58:00,46.5,44.8,29.71,NE,43,1.0,5.0,94,0.03,,,0.16,WUHU216DAVISVP2,2013-04-08 02:58:00,
2013-04-07 22:03:00,46.5,44.8,29.71,North,353,0.0,4.0,94,0.03,,,0.16,WUHU216DAVISVP2,2013-04-08 03:03:00,
2013-04-07 22:09:00,46.5,44.9,29.70,NE,50,1.0,3.0,94,0.03,,,0.16,WUHU216DAVISVP2,2013-04-08 03:09:00,
2013-04-07 22:14:00,46.5,44.9,29.70,ENE,70,0.0,2.0,94,0.01,,,0.16,WUHU216DAVISVP2,2013-04-08 03:14:00,
2013-04-07 22:19:00,46.6,44.9,29.69,ENE,73,0.0,3.0,94,0.00,,,0.16,WUHU216DAVISVP2,2013-04-08 03:19:00,
2013-04-07 22:24:00,46.6,44.9,29.69,ENE,78,2.0,3.0,94,0.00,,,0.16,WUHU216DAVISVP2,2013-04-08 03:24:00,
2013-04-07 22:29:00,46.6,44.9,29.69,ESE,121,2.0,5.0,94,0.00,,,0.16,WUHU216DAVISVP2,2013-04-08 03:29:00,
2013-04-07 22:34:00,46.7,45.1,29.69,ESE,117,2.0,5.0,94,0.00,,,0.16,WUHU216DAVISVP2,2013-04-08 03:34:00,
2013-04-07 22:39:00,46.8,44.8,29.69,East,98,2.0,5.0,93,0.00,,,0.16,WUHU216DAVISVP2,2013-04-08 03:39:00,
2013-04-07 22:44:00,46.9,44.9,29.68,ENE,70,6.0,7.0,93,0.00,,,0.16,WUHU216DAVISVP2,2013-04-08 03:44:00,
2013-04-07 22:49:00,47.0,45.0,29.68,ENE,69,3.0,7.0,93,0.00,,,0.16,WUHU216DAVISVP2,2013-04-08 03:49:00,
2013-04-07 22:54:00,47.0,45.1,29.68,ENE,77,2.0,7.0,93,0.00,,,0.16,WUHU216DAVISVP2,2013-04-08 03:54:00,
2013-04-07 23:00:00,46.9,45.0,29.68,East,95,1.0,7.0,93,0.00,,,0.16,WUHU216DAVISVP2,2013-04-08 04:00:00,
2013-04-07 23:01:00,46.9,45.0,29.68,East,96,1.0,7.0,93,0.00,,,0.16,WUHU216DAVISVP2,2013-04-08 04:01:00,
2013-04-07 23:07:00,46.8,44.9,29.67,ESE,117,1.0,6.0,93,0.00,,,0.16,WUHU216DAVISVP2,2013-04-08 04:07:00,
2013-04-07 23:12:00,46.6,44.6,29.67,ESE,118,2.0,5.0,93,0.00,,,0.16,WUHU216DAVISVP2,2013-04-08 04:12:00,
2013-04-07 23:17:00,46.5,44.5,29.67,ESE,105,2.0,6.0,93,0.00,,,0.16,WUHU216DAVISVP2,2013-04-08 04:17:00,
2013-04-07 23:22:00,46.4,44.4,29.67,East,99,1.0,6.0,93,0.00,,,0.16,WUHU216DAVISVP2,2013-04-08 04:22:00,
2013-04-07 23:27:00,46.3,44.3,29.67,East,89,1.0,6.0,93,0.00,,,0.16,WUHU216DAVISVP2,2013-04-08 04:27:00,
2013-04-07 23:32:00,46.2,44.2,29.67,East,85,1.0,5.0,93,0.00,,,0.16,WUHU216DAVISVP2,2013-04-08 04:32:00,
2013-04-07 23:37:00,46.2,44.2,29.67,ESE,103,0.0,4.0,93,0.00,,,0.16,WUHU216DAVISVP2,2013-04-08 04:37:00,
2013-04-07 23:42:00,46.1,44.4,29.67,East,90,2.0,4.0,94,0.00,,,0.16,WUHU216DAVISVP2,2013-04-08 04:42:00,
2013-04-07 23:47:00,46.0,44.3,29.67,ESE,113,0.0,4.0,94,0.00,,,0.16,WUHU216DAVISVP2,2013-04-08 04:47:00,
2013-04-07 23:52:00,46.0,44.4,29.67,ESE,106,2.0,4.0,94,0.00,,,0.16,WUHU216DAVISVP2,2013-04-08 04:52:00,
2013-04-07 23:57:00,46.1,44.5,29.67,East,99,1.0,4.0,94,0.00,,,0.16,WUHU216DAVISVP2,2013-04-08 04:57:00,